Time;durP1;ratioP1;P1;durP2;ratioP2;P2;SDS_P1;SDS_P2;PMS_P1;PMS_P2;Temp;Humidity;BMP_temperature;BMP_pressure;BME280_temperature;BME280_humidity;BME280_pressure;Samples;Min_cycle;Max_cycle;Signal;HPM_P1;HPM_P2
2022/01/04 00:00:25;;;;;;;4.50;2.25;;;9.90;90.10;;;;;;5200954;28;20064;-32
2022/01/04 00:02:57;;;;;;;4.65;2.45;;;9.90;90.40;;;;;;5188814;28;20041;-33
2022/01/04 00:05:30;;;;;;;4.90;2.70;;;9.80;90.80;;;;;;5197553;28;20294;-33
2022/01/04 00:08:07;;;;;;;4.47;2.50;;;9.80;91.10;;;;;;5194340;28;20041;-32
2022/01/04 00:10:40;;;;;;;5.55;2.53;;;9.70;91.40;;;;;;5179652;28;20659;-33
2022/01/04 00:13:23;;;;;;;3.83;2.07;;;9.70;91.50;;;;;;4153189;28;10000573;-32
2022/01/04 00:15:56;;;;;;;8.73;2.30;;;9.70;91.70;;;;;;5171979;28;20521;-32
2022/01/04 00:18:29;;;;;;;4.63;2.27;;;9.60;91.70;;;;;;5188036;28;20038;-33
2022/01/04 00:21:02;;;;;;;6.25;2.90;;;9.60;92.10;;;;;;5190398;28;20044;-34
2022/01/04 00:23:34;;;;;;;3.55;1.90;;;9.50;92.60;;;;;;5187189;28;20502;-32
2022/01/04 00:26:08;;;;;;;4.45;3.03;;;9.50;93.00;;;;;;5186089;28;20049;-33
2022/01/04 00:28:40;;;;;;;4.88;2.00;;;9.50;93.10;;;;;;5174576;28;20041;-32
2022/01/04 00:31:13;;;;;;;4.30;2.25;;;9.50;93.20;;;;;;5180010;28;20049;-33
2022/01/04 00:33:46;;;;;;;4.97;2.10;;;9.50;93.80;;;;;;5192410;28;20041;-32
2022/01/04 00:36:19;;;;;;;2.65;2.05;;;9.40;94.00;;;;;;5200667;28;20044;-32
2022/01/04 00:38:51;;;;;;;4.50;2.25;;;9.40;94.00;;;;;;5195864;28;20072;-33
2022/01/04 00:41:23;;;;;;;10.52;2.95;;;9.40;94.70;;;;;;5190284;28;20517;-32
2022/01/04 00:43:56;;;;;;;5.95;3.10;;;9.30;95.20;;;;;;5192217;28;20044;-33
2022/01/04 00:46:28;;;;;;;5.55;2.35;;;9.30;95.70;;;;;;5194423;28;20037;-32
2022/01/04 00:49:10;;;;;;;4.88;2.33;;;9.30;95.90;;;;;;5195223;28;20037;-33
2022/01/04 00:51:50;;;;;;;6.32;2.55;;;9.30;96.20;;;;;;5218604;28;22000;-32
2022/01/04 00:54:23;;;;;;;4.75;1.95;;;9.30;96.80;;;;;;5216062;28;20044;-33
2022/01/04 00:56:55;;;;;;;4.78;2.08;;;9.30;97.30;;;;;;5215882;28;20453;-33
2022/01/04 00:59:28;;;;;;;2.80;1.70;;;9.20;97.60;;;;;;5213786;28;20040;-33
2022/01/04 01:02:01;;;;;;;2.80;1.55;;;9.30;96.60;;;;;;5204153;28;20052;-32
2022/01/04 01:04:34;;;;;;;3.23;1.50;;;9.30;96.40;;;;;;5190734;28;20531;-32
2022/01/04 01:07:06;;;;;;;4.68;1.33;;;9.40;96.10;;;;;;5213883;28;20040;-33
2022/01/04 01:09:50;;;;;;;6.70;1.55;;;9.40;95.40;;;;;;5207833;28;20157;-34
2022/01/04 01:12:22;;;;;;;3.78;1.48;;;9.50;94.90;;;;;;5210407;28;20063;-32
2022/01/04 01:14:55;;;;;;;4.07;1.27;;;9.60;94.30;;;;;;5193334;28;20060;-33
2022/01/04 01:17:27;;;;;;;4.03;1.60;;;9.60;94.80;;;;;;5207726;28;20135;-33
2022/01/04 01:20:01;;;;;;;2.80;1.23;;;9.70;94.00;;;;;;5192663;28;20536;-32
2022/01/04 01:22:34;;;;;;;2.00;0.90;;;9.70;93.40;;;;;;5208715;28;20048;-33
2022/01/04 01:25:08;;;;;;;2.72;1.17;;;9.70;93.10;;;;;;5209371;28;20044;-32
2022/01/04 01:27:41;;;;;;;1.85;1.10;;;9.80;92.90;;;;;;5211271;28;20412;-32
2022/01/04 01:30:14;;;;;;;1.55;1.02;;;9.80;93.10;;;;;;5216895;28;20032;-32
2022/01/04 01:32:48;;;;;;;2.87;1.40;;;9.90;93.10;;;;;;5220052;28;20216;-32
2022/01/04 01:35:21;;;;;;;1.52;1.23;;;9.90;92.60;;;;;;5215356;28;20060;-34
2022/01/04 01:37:53;;;;;;;3.25;1.20;;;9.90;92.30;;;;;;5210958;28;20063;-33
2022/01/04 01:40:26;;;;;;;2.42;1.45;;;10.00;92.70;;;;;;5214386;28;20579;-32
2022/01/04 01:42:59;;;;;;;1.42;1.20;;;10.00;92.60;;;;;;5208987;28;20052;-32
2022/01/04 01:45:31;;;;;;;2.67;1.23;;;10.00;92.00;;;;;;5215216;23;20049;-37
2022/01/04 01:48:05;;;;;;;2.88;1.35;;;10.00;91.70;;;;;;5210688;28;20473;-36
2022/01/04 01:50:38;;;;;;;1.80;1.03;;;10.00;91.20;;;;;;5208861;28;20045;-36
2022/01/04 01:53:10;;;;;;;6.67;2.83;;;10.00;91.60;;;;;;5218721;28;20694;-36
2022/01/04 01:55:43;;;;;;;6.28;1.27;;;10.10;91.40;;;;;;5211008;28;20042;-35
2022/01/04 01:58:16;;;;;;;5.03;1.27;;;10.10;91.00;;;;;;5198840;28;20243;-36
2022/01/04 02:00:48;;;;;;;2.42;1.00;;;10.10;90.50;;;;;;5195339;28;20463;-36
2022/01/04 02:03:22;;;;;;;3.72;1.30;;;10.10;90.70;;;;;;5208181;28;20108;-35
2022/01/04 02:05:55;;;;;;;2.90;1.13;;;10.10;91.50;;;;;;5199660;28;20040;-35
2022/01/04 02:08:29;;;;;;;1.60;1.20;;;10.10;91.10;;;;;;5208153;28;20036;-36
2022/01/04 02:11:02;;;;;;;1.30;0.93;;;10.10;91.30;;;;;;5207157;28;20067;-36
2022/01/04 02:13:34;;;;;;;2.13;1.02;;;10.20;90.90;;;;;;5207972;28;20048;-36
2022/01/04 02:16:09;;;;;;;2.25;1.35;;;10.20;90.00;;;;;;5191912;28;20056;-37
2022/01/04 02:18:42;;;;;;;3.42;1.10;;;10.20;90.00;;;;;;5200112;28;20057;-36
2022/01/04 02:21:14;;;;;;;3.20;1.30;;;10.20;90.10;;;;;;5191832;28;20044;-38
2022/01/04 02:23:46;;;;;;;1.20;1.02;;;10.20;90.40;;;;;;5188936;28;20075;-36
2022/01/04 02:26:19;;;;;;;2.13;1.60;;;10.20;90.10;;;;;;5207054;28;20807;-36
2022/01/04 02:28:52;;;;;;;1.98;1.23;;;10.20;89.30;;;;;;5206990;28;20459;-37
2022/01/04 02:31:27;;;;;;;1.73;1.05;;;10.10;89.10;;;;;;5199730;28;20044;-36
2022/01/04 02:33:59;;;;;;;2.60;1.10;;;10.20;89.70;;;;;;5187010;28;20635;-36
2022/01/04 02:36:32;;;;;;;1.88;1.35;;;10.20;89.60;;;;;;5204957;28;20272;-37
2022/01/04 02:39:04;;;;;;;2.17;1.20;;;10.20;88.60;;;;;;5206565;28;20521;-37
2022/01/04 02:41:37;;;;;;;1.95;1.42;;;10.20;88.80;;;;;;5205757;28;20508;-36
2022/01/04 02:44:09;;;;;;;1.58;1.23;;;10.20;90.00;;;;;;5203230;28;20053;-36
2022/01/04 02:46:42;;;;;;;1.23;1.00;;;10.10;90.20;;;;;;5190050;28;20691;-37
2022/01/04 02:49:15;;;;;;;2.10;1.53;;;10.20;89.70;;;;;;5209794;28;20045;-37
2022/01/04 02:51:47;;;;;;;2.85;1.02;;;10.20;88.80;;;;;;5210645;28;20044;-35
2022/01/04 02:54:20;;;;;;;1.48;1.00;;;10.20;88.80;;;;;;5215894;28;20032;-37
2022/01/04 02:56:52;;;;;;;2.28;1.58;;;10.10;88.90;;;;;;5210897;28;20508;-37
2022/01/04 02:59:25;;;;;;;1.70;1.17;;;10.10;88.60;;;;;;5208089;28;20056;-38
2022/01/04 03:01:57;;;;;;;8.73;1.10;;;10.10;88.40;;;;;;5204190;28;20666;-36
2022/01/04 03:04:30;;;;;;;2.13;1.17;;;10.10;89.10;;;;;;5195114;28;20045;-36
2022/01/04 03:07:03;;;;;;;1.08;0.95;;;10.20;89.20;;;;;;5185867;28;20304;-36
2022/01/04 03:09:36;;;;;;;2.47;1.02;;;10.20;88.30;;;;;;5189903;28;20045;-37
2022/01/04 03:12:09;;;;;;;4.47;1.20;;;10.20;88.30;;;;;;5196975;28;20560;-36
2022/01/04 03:14:42;;;;;;;;;;;10.20;87.80;;;;;;5211920;28;20040;-36
2022/01/04 03:17:15;;;;;;;4.47;1.40;;;10.20;87.60;;;;;;5209933;28;19924;-36
2022/01/04 03:19:48;;;;;;;1.33;1.17;;;10.10;88.30;;;;;;5213416;28;20052;-37
2022/01/04 03:22:20;;;;;;;1.75;1.00;;;10.20;87.20;;;;;;5208169;28;20421;-36
2022/01/04 03:24:52;;;;;;;2.25;1.08;;;10.10;87.30;;;;;;5209714;28;20089;-36
2022/01/04 03:27:25;;;;;;;3.10;1.35;;;10.10;88.70;;;;;;5211555;28;20043;-37
2022/01/04 03:29:57;;;;;;;1.63;1.00;;;10.10;88.20;;;;;;5204638;28;20056;-36
2022/01/04 03:32:30;;;;;;;1.98;1.13;;;10.10;88.30;;;;;;5202897;28;20036;-40
2022/01/04 03:35:03;;;;;;;1.95;1.20;;;10.10;88.80;;;;;;5213966;28;20044;-37
2022/01/04 03:37:35;;;;;;;1.42;1.17;;;10.10;90.20;;;;;;5218114;28;20059;-37
2022/01/04 03:40:08;;;;;;;2.08;1.23;;;10.10;90.20;;;;;;5204973;28;20150;-36
2022/01/04 03:42:41;;;;;;;2.33;1.38;;;10.00;90.50;;;;;;5211953;28;20044;-36
2022/01/04 03:45:14;;;;;;;2.88;1.20;;;10.00;91.20;;;;;;5207960;28;20044;-36
2022/01/04 03:47:46;;;;;;;7.88;1.17;;;10.00;91.50;;;;;;5210481;28;20424;-37
2022/01/04 03:50:19;;;;;;;2.78;1.48;;;10.00;91.60;;;;;;5205497;28;20040;-37
2022/01/04 03:52:51;;;;;;;2.10;1.05;;;9.90;91.60;;;;;;5203035;28;20079;-38
2022/01/04 03:55:24;;;;;;;2.97;1.00;;;9.90;91.30;;;;;;5180634;28;20512;-38
2022/01/04 03:57:56;;;;;;;2.08;1.17;;;9.80;91.20;;;;;;5214448;28;20059;-37
2022/01/04 04:00:29;;;;;;;1.63;1.05;;;9.80;90.90;;;;;;5210006;28;20391;-38
2022/01/04 04:03:02;;;;;;;2.33;1.40;;;9.80;90.70;;;;;;5192634;28;20045;-37
2022/01/04 04:05:34;;;;;;;2.03;1.25;;;9.70;90.60;;;;;;5212816;28;20071;-38
2022/01/04 04:08:07;;;;;;;2.28;1.20;;;9.70;90.80;;;;;;5179975;28;20045;-37
2022/01/04 04:10:39;;;;;;;2.17;1.02;;;9.70;90.90;;;;;;5209039;28;20261;-37
2022/01/04 04:13:12;;;;;;;1.48;1.10;;;9.60;91.00;;;;;;5209874;28;20049;-37
2022/01/04 04:15:44;;;;;;;3.08;1.83;;;9.60;91.40;;;;;;5199546;28;20417;-37
2022/01/04 04:18:17;;;;;;;2.63;1.30;;;9.60;91.90;;;;;;5209656;28;21784;-36
2022/01/04 04:20:50;;;;;;;4.90;1.60;;;9.50;92.40;;;;;;5211853;28;20304;-37
2022/01/04 04:23:22;;;;;;;3.92;1.70;;;9.50;92.40;;;;;;5204771;28;20394;-36
2022/01/04 04:25:55;;;;;;;2.20;1.88;;;9.40;92.60;;;;;;5209911;28;20052;-37
2022/01/04 04:28:27;;;;;;;2.95;1.35;;;9.40;93.10;;;;;;5214333;28;20079;-37
2022/01/04 04:31:03;;;;;;;3.37;1.70;;;9.30;93.60;;;;;;5209340;28;20048;-36
2022/01/04 04:33:36;;;;;;;2.78;1.60;;;9.30;94.50;;;;;;5213523;28;20043;-37
2022/01/04 04:36:09;;;;;;;3.53;1.77;;;9.30;95.00;;;;;;5212824;28;20746;-37
2022/01/04 04:38:41;;;;;;;3.43;1.50;;;9.30;95.40;;;;;;5177423;28;20053;-38
2022/01/04 04:41:13;;;;;;;1.52;1.13;;;9.20;95.80;;;;;;5196370;28;20310;-38
2022/01/04 04:43:46;;;;;;;2.15;1.48;;;9.10;96.10;;;;;;5195169;28;20044;-37
2022/01/04 04:46:19;;;;;;;2.58;1.42;;;9.10;96.60;;;;;;5206782;28;20581;-37
2022/01/04 04:48:51;;;;;;;3.55;1.70;;;9.10;97.20;;;;;;5190664;28;20048;-37
2022/01/04 04:51:24;;;;;;;3.08;1.80;;;9.10;97.40;;;;;;5208461;28;20094;-37
2022/01/04 04:53:56;;;;;;;2.45;1.35;;;9.00;97.90;;;;;;5206790;28;20053;-37
2022/01/04 04:56:29;;;;;;;3.60;1.35;;;9.00;98.20;;;;;;5216045;28;20045;-37
2022/01/04 04:59:01;;;;;;;5.95;1.88;;;9.00;98.40;;;;;;5207657;28;20048;-37
2022/01/04 05:01:35;;;;;;;1.98;1.15;;;9.00;98.70;;;;;;5207108;28;20053;-37
2022/01/04 05:04:07;;;;;;;2.47;1.52;;;8.90;98.70;;;;;;5173943;28;20060;-37
2022/01/04 05:06:40;;;;;;;2.88;1.77;;;8.90;99.20;;;;;;5195349;28;20040;-36
2022/01/04 05:09:12;;;;;;;2.60;1.42;;;8.90;99.50;;;;;;5207351;28;20045;-36
2022/01/04 05:11:45;;;;;;;2.33;1.45;;;8.90;99.90;;;;;;5209160;28;20701;-37
2022/01/04 05:14:19;;;;;;;3.25;1.52;;;8.90;99.90;;;;;;5209892;28;20052;-38
2022/01/04 05:16:51;;;;;;;4.55;1.23;;;8.90;99.90;;;;;;5213269;28;20040;-36
2022/01/04 05:19:24;;;;;;;3.15;1.90;;;8.90;99.90;;;;;;5207491;28;20049;-37
2022/01/04 05:21:56;;;;;;;2.63;1.67;;;8.80;99.90;;;;;;5202173;28;20083;-39
2022/01/04 05:24:29;;;;;;;2.30;1.35;;;8.80;99.90;;;;;;5206634;28;20041;-37
2022/01/04 05:27:01;;;;;;;3.70;1.60;;;8.80;99.90;;;;;;5213863;28;20052;-37
2022/01/04 05:29:34;;;;;;;4.47;1.40;;;8.80;99.90;;;;;;5173484;28;20056;-37
2022/01/04 05:32:08;;;;;;;2.55;1.60;;;8.80;99.90;;;;;;5197921;28;20044;-37
2022/01/04 05:34:40;;;;;;;4.20;1.80;;;8.80;99.90;;;;;;5207485;28;20045;-37
2022/01/04 05:37:13;;;;;;;2.92;1.50;;;8.80;99.90;;;;;;5200817;28;20317;-37
2022/01/04 05:39:45;;;;;;;4.22;1.10;;;8.80;99.90;;;;;;5207848;28;20040;-39
2022/01/04 05:42:18;;;;;;;2.92;1.30;;;8.80;99.90;;;;;;5205815;28;20602;-37
2022/01/04 05:44:50;;;;;;;9.60;1.85;;;8.80;99.90;;;;;;5207972;28;20493;-37
2022/01/04 05:47:24;;;;;;;2.75;1.63;;;8.70;99.90;;;;;;5202776;28;20057;-37
2022/01/04 05:49:57;;;;;;;5.18;1.77;;;8.70;99.90;;;;;;5208859;28;20211;-37
2022/01/04 05:52:29;;;;;;;2.75;1.55;;;8.70;99.90;;;;;;5202455;28;20350;-37
2022/01/04 05:55:02;;;;;;;5.50;1.70;;;8.70;99.90;;;;;;5203660;28;20627;-37
2022/01/04 05:57:35;;;;;;;4.13;1.40;;;8.70;99.90;;;;;;5184957;28;20299;-37
2022/01/04 06:00:09;;;;;;;4.70;1.58;;;8.60;99.90;;;;;;5197279;28;20045;-37
2022/01/04 06:02:43;;;;;;;2.00;1.20;;;8.60;99.90;;;;;;5190846;28;20241;-39
2022/01/04 06:05:15;;;;;;;2.83;1.48;;;8.60;99.90;;;;;;5177631;28;20045;-37
2022/01/04 06:07:48;;;;;;;4.05;1.90;;;8.60;99.90;;;;;;5202395;28;20041;-37
2022/01/04 06:10:21;;;;;;;5.10;1.77;;;8.60;99.90;;;;;;5203707;28;21700;-37
2022/01/04 06:15:28;;;;;;;3.85;2.00;;;8.60;99.90;;;;;;5211543;28;20192;-37
2022/01/04 06:18:01;;;;;;;2.30;1.58;;;8.50;99.90;;;;;;5185585;28;20055;-37
2022/01/04 06:20:35;;;;;;;3.72;1.55;;;8.50;99.90;;;;;;5214260;28;20071;-37
2022/01/04 06:23:07;;;;;;;3.85;1.58;;;8.50;99.90;;;;;;5185500;28;20049;-36
2022/01/04 06:25:40;;;;;;;6.10;2.00;;;8.50;99.90;;;;;;5190180;28;20036;-37
2022/01/04 06:28:12;;;;;;;3.72;1.70;;;8.50;99.90;;;;;;5189035;28;20064;-37
2022/01/04 06:30:45;;;;;;;3.53;1.45;;;8.50;99.90;;;;;;5204790;28;20477;-37
2022/01/04 06:33:23;;;;;;;3.65;1.90;;;8.50;99.90;;;;;;5211737;28;20041;-36
2022/01/04 06:35:55;;;;;;;4.53;1.70;;;8.40;99.90;;;;;;5189860;28;21154;-37
2022/01/04 06:38:27;;;;;;;5.38;1.98;;;8.50;99.90;;;;;;5191640;28;20081;-36
2022/01/04 06:41:00;;;;;;;4.90;1.92;;;8.40;99.90;;;;;;5202571;28;20049;-37
2022/01/04 06:43:32;;;;;;;3.22;1.77;;;8.40;99.90;;;;;;5209173;28;21224;-45
2022/01/04 06:46:05;;;;;;;4.43;1.58;;;8.40;99.90;;;;;;5210545;28;20049;-36
2022/01/04 06:48:38;;;;;;;2.60;1.60;;;8.40;99.90;;;;;;5190704;28;20092;-37
2022/01/04 06:51:12;;;;;;;4.85;1.55;;;8.40;99.90;;;;;;5207204;28;20049;-36
2022/01/04 06:53:45;;;;;;;6.13;2.33;;;8.40;99.90;;;;;;5186018;28;20048;-37
2022/01/04 06:56:17;;;;;;;4.63;2.17;;;8.40;99.90;;;;;;5190972;28;20049;-36
2022/01/04 06:58:50;;;;;;;2.60;2.15;;;8.40;99.90;;;;;;5175033;28;20044;-37
2022/01/04 07:01:22;;;;;;;5.60;2.10;;;8.40;99.90;;;;;;5200570;28;20053;-37
2022/01/04 07:03:55;;;;;;;4.53;1.80;;;8.40;99.90;;;;;;5194456;28;20670;-37
2022/01/04 07:06:28;;;;;;;3.20;1.90;;;8.40;99.90;;;;;;5207424;28;20041;-36
2022/01/04 07:09:01;;;;;;;2.60;1.75;;;8.30;99.90;;;;;;5204560;28;20037;-36
2022/01/04 07:11:34;;;;;;;5.90;2.13;;;8.30;99.90;;;;;;5214595;28;20040;-37
2022/01/04 07:14:06;;;;;;;5.40;1.77;;;8.30;99.90;;;;;;5197801;28;20484;-36
2022/01/04 07:16:39;;;;;;;3.88;1.80;;;8.30;99.90;;;;;;5207575;28;20049;-36
2022/01/04 07:19:11;;;;;;;4.63;2.05;;;8.30;99.90;;;;;;5209993;28;20045;-36
2022/01/04 07:21:44;;;;;;;3.83;1.60;;;8.30;99.90;;;;;;5208886;28;20040;-36
2022/01/04 07:24:17;;;;;;;5.00;2.03;;;8.30;99.90;;;;;;5210094;28;20053;-36
2022/01/04 07:26:49;;;;;;;5.97;2.13;;;8.30;99.90;;;;;;5206780;28;20060;-37
2022/01/04 07:29:22;;;;;;;6.93;2.33;;;8.30;99.90;;;;;;5206234;28;20032;-37
2022/01/04 07:31:54;;;;;;;5.50;2.03;;;8.30;99.90;;;;;;5198745;28;20037;-36
2022/01/04 07:34:27;;;;;;;6.40;2.20;;;8.40;99.90;;;;;;5180774;28;20040;-36
2022/01/04 07:36:59;;;;;;;5.53;2.53;;;8.30;99.90;;;;;;5200004;28;20429;-37
2022/01/04 07:39:31;;;;;;;5.13;1.90;;;8.40;99.90;;;;;;5188345;28;20057;-38
2022/01/04 07:42:04;;;;;;;6.32;1.65;;;8.40;99.90;;;;;;5180757;28;20513;-36
2022/01/04 07:44:38;;;;;;;3.40;1.88;;;8.40;99.90;;;;;;5167385;28;20523;-37
2022/01/04 07:47:11;;;;;;;4.93;1.92;;;8.40;99.90;;;;;;5222931;23;20059;-85
2022/01/04 07:49:44;;;;;;;3.85;1.55;;;8.40;99.90;;;;;;5209872;28;20053;-85
2022/01/04 07:52:16;;;;;;;5.15;2.30;;;8.40;99.90;;;;;;5192828;28;20044;-86
2022/01/04 07:54:49;;;;;;;7.13;2.13;;;8.50;99.90;;;;;;5211818;28;22340;-85
2022/01/04 07:57:22;;;;;;;3.20;1.90;;;8.40;99.90;;;;;;5208318;28;20598;-84
2022/01/04 07:59:54;;;;;;;6.00;2.20;;;8.50;99.90;;;;;;5207059;28;20068;-84
2022/01/04 08:02:27;;;;;;;3.17;1.57;;;8.50;99.90;;;;;;5212120;28;20095;-85
2022/01/04 08:05:00;;;;;;;4.13;1.88;;;7.20;99.90;;;;;;5196895;28;20080;-85
2022/01/04 08:07:32;;;;;;;5.43;1.60;;;8.60;99.90;;;;;;5215957;28;20045;-85
2022/01/04 08:10:06;;;;;;;4.60;1.90;;;9.40;99.90;;;;;;5210744;28;20044;-84
2022/01/04 08:12:39;;;;;;;2.72;1.40;;;8.70;99.90;;;;;;5211419;28;20051;-84
2022/01/04 08:15:12;;;;;;;7.10;2.10;;;8.80;99.90;;;;;;5201078;28;20049;-85
2022/01/04 08:17:45;;;;;;;3.53;1.67;;;8.80;99.90;;;;;;5204033;28;20060;-85
2022/01/04 08:20:18;;;;;;;7.57;2.13;;;8.90;99.90;;;;;;5222671;28;20147;-84
2022/01/04 08:22:51;;;;;;;4.15;2.55;;;8.90;99.90;;;;;;5188559;28;20056;-84
2022/01/04 08:25:24;;;;;;;2.95;1.90;;;9.50;99.90;;;;;;5213470;28;20041;-85
2022/01/04 08:27:57;;;;;;;2.78;1.60;;;9.00;99.90;;;;;;5226328;28;20052;-83
2022/01/04 08:30:29;;;;;;;2.03;1.30;;;9.00;99.90;;;;;;5214163;28;20045;-84
2022/01/04 08:33:02;;;;;;;2.63;1.50;;;8.80;99.90;;;;;;5190615;28;20041;-85
2022/01/04 08:35:34;;;;;;;2.97;1.38;;;9.20;99.90;;;;;;5188114;28;20304;-83
2022/01/04 08:38:08;;;;;;;3.27;1.33;;;;;;;;;;5195587;28;20037;-84
2022/01/04 08:40:41;;;;;;;3.47;1.20;;;;;;;;;;5217867;28;20045;-83
2022/01/04 08:43:14;;;;;;;3.25;1.33;;;;;;;;;;5190530;28;20053;-83
2022/01/04 08:45:47;;;;;;;3.63;1.33;;;9.20;99.90;;;;;;5212075;28;20499;-84
2022/01/04 08:48:20;;;;;;;4.45;1.52;;;;;;;;;;5198577;28;20056;-84
2022/01/04 08:50:53;;;;;;;4.13;1.63;;;;;;;;;;5220086;28;20056;-83
2022/01/04 08:53:25;;;;;;;8.63;3.47;;;9.30;99.90;;;;;;5196560;28;20049;-85
2022/01/04 08:56:01;;;;;;;3.38;2.22;;;10.40;99.90;;;;;;5219416;28;20043;-83
2022/01/04 08:58:34;;;;;;;6.35;1.98;;;8.10;99.90;;;;;;5199228;28;20485;-84
2022/01/04 09:01:06;;;;;;;5.20;1.90;;;9.30;99.90;;;;;;5202339;28;20049;-85
2022/01/04 09:03:39;;;;;;;6.63;1.88;;;10.60;99.90;;;;;;5202979;28;21716;-83
2022/01/04 09:06:12;;;;;;;3.58;1.83;;;9.30;99.90;;;;;;5189618;28;20051;-83
2022/01/04 09:08:45;;;;;;;5.60;2.30;;;9.20;99.90;;;;;;5202767;28;20052;-83
2022/01/04 09:11:21;;;;;;;6.18;2.67;;;9.30;99.90;;;;;;5213855;28;20045;-83
2022/01/04 09:14:05;;;;;;;7.00;2.30;;;9.30;99.90;;;;;;5201940;28;20040;-84
2022/01/04 09:19:31;;;;;;;4.60;2.22;;;9.40;99.90;;;;;;5215612;28;20045;-84
2022/01/04 09:22:05;;;;;;;5.93;2.10;;;9.30;99.90;;;;;;5209004;28;20079;-84
2022/01/04 09:24:37;;;;;;;5.13;2.20;;;9.30;99.90;;;;;;5205826;28;20055;-83
2022/01/04 09:27:10;;;;;;;8.00;2.38;;;9.30;99.90;;;;;;5205499;28;20053;-83
2022/01/04 09:29:43;;;;;;;2.20;1.65;;;9.30;99.90;;;;;;5185579;28;20033;-84
2022/01/04 09:32:17;;;;;;;4.18;1.60;;;9.40;99.90;;;;;;5188700;28;20228;-84
2022/01/04 09:34:49;;;;;;;2.50;1.83;;;9.40;99.90;;;;;;5208925;28;20135;-85
2022/01/04 09:37:22;;;;;;;5.22;1.55;;;9.60;99.90;;;;;;5192824;28;20074;-84
2022/01/04 09:39:55;;;;;;;1.98;1.48;;;9.40;99.90;;;;;;5216646;28;20061;-84
2022/01/04 09:42:27;;;;;;;3.40;1.52;;;9.40;99.90;;;;;;5184602;28;20061;-85
2022/01/04 09:45:00;;;;;;;3.70;1.88;;;9.50;99.90;;;;;;5188119;28;20658;-84
2022/01/04 09:47:34;;;;;;;4.20;1.60;;;;;;;;;;5210542;28;20444;-85
2022/01/04 09:50:10;;;;;;;3.75;1.73;;;9.50;99.90;;;;;;5203196;28;20056;-84
2022/01/04 09:52:47;;;;;;;4.63;1.88;;;9.60;99.90;;;;;;5216813;28;20036;-85
2022/01/04 09:55:19;;;;;;;2.33;1.65;;;9.20;99.90;;;;;;5196114;28;20045;-84
2022/01/04 09:57:52;;;;;;;3.25;1.70;;;10.70;99.90;;;;;;5189314;28;20662;-84
2022/01/04 10:00:25;;;;;;;4.43;2.00;;;9.70;99.90;;;;;;5216855;28;20056;-85
2022/01/04 10:03:21;;;;;;;5.00;2.28;;;9.80;99.90;;;;;;5200833;28;20049;-84
2022/01/04 10:06:15;;;;;;;5.15;2.67;;;9.80;99.90;;;;;;5190309;28;20044;-85
2022/01/04 10:08:56;;;;;;;2.53;2.08;;;11.30;99.90;;;;;;5222051;28;20064;-84
2022/01/04 10:11:36;;;;;;;3.90;1.70;;;9.80;99.90;;;;;;5213850;28;20703;-85
2022/01/04 10:14:27;;;;;;;3.72;1.48;;;7.90;99.90;;;;;;5189771;28;20776;-87
2022/01/04 10:17:02;;;;;;;3.38;1.27;;;10.30;99.90;;;;;;5195599;28;20048;-84
2022/01/04 10:19:38;;;;;;;2.13;1.60;;;10.70;99.90;;;;;;5219455;28;20412;-85
2022/01/04 10:22:23;;;;;;;6.70;1.85;;;9.90;99.90;;;;;;5200214;28;20971;-84
2022/01/04 10:25:10;;;;;;;2.13;1.60;;;9.90;99.90;;;;;;5214790;28;20059;-85
2022/01/04 10:27:44;;;;;;;2.80;1.70;;;10.80;99.90;;;;;;5216085;28;20059;-85
2022/01/04 10:30:27;;;;;;;2.13;1.50;;;10.00;99.90;;;;;;5197633;28;20048;-85
2022/01/04 10:33:20;;;;;;;2.95;1.40;;;10.00;99.90;;;;;;5195820;28;21059;-85
2022/01/04 10:35:56;;;;;;;3.42;1.33;;;10.00;99.90;;;;;;5207510;28;20036;-85
2022/01/04 10:38:32;;;;;;;2.15;1.33;;;10.10;99.90;;;;;;5193394;28;20049;-84
2022/01/04 10:41:25;;;;;;;2.03;1.33;;;10.20;99.90;;;;;;5192027;28;20056;-85
2022/01/04 10:44:06;;;;;;;2.70;1.20;;;10.20;99.90;;;;;;5174124;28;20053;-85
2022/01/04 10:46:41;;;;;;;1.55;1.20;;;10.30;99.90;;;;;;5190314;28;20040;-85
2022/01/04 10:49:23;;;;;;;5.03;2.95;;;10.30;99.90;;;;;;5188129;28;20057;-85
2022/01/04 10:52:08;;;;;;;1.85;1.30;;;10.00;99.90;;;;;;5200726;28;20048;-84
2022/01/04 10:54:42;;;;;;;3.78;1.52;;;10.30;99.90;;;;;;5219056;28;20049;-84
2022/01/04 10:57:15;;;;;;;8.27;2.53;;;10.20;99.90;;;;;;5194193;28;20047;-85
2022/01/04 10:59:48;;;;;;;2.30;1.50;;;10.30;99.90;;;;;;5194667;28;20055;-84
2022/01/04 11:02:41;;;;;;;4.05;1.80;;;11.70;99.90;;;;;;5184325;28;20048;-84
2022/01/04 11:05:17;;;;;;;6.03;1.83;;;9.80;99.90;;;;;;5200284;28;20048;-84
2022/01/04 11:08:00;;;;;;;4.07;1.63;;;11.30;99.90;;;;;;5208275;28;20123;-83
2022/01/04 11:10:35;;;;;;;1.50;1.30;;;10.40;99.90;;;;;;5178163;28;20050;-84
2022/01/04 11:13:08;;;;;;;3.13;1.85;;;12.70;99.90;;;;;;5199705;28;20041;-85
2022/01/04 11:15:40;;;;;;;3.85;1.65;;;10.50;99.90;;;;;;5162571;28;20053;-84
2022/01/04 11:18:13;;;;;;;2.50;1.83;;;;;;;;;;5204089;28;20764;-84
2022/01/04 11:20:46;;;;;;;1.70;1.60;;;10.60;99.90;;;;;;5198063;28;20060;-84
2022/01/04 11:23:25;;;;;;;2.13;1.80;;;10.70;99.90;;;;;;5173505;28;20528;-83
2022/01/04 11:26:00;;;;;;;1.70;1.42;;;10.70;99.90;;;;;;5203397;28;20716;-83
2022/01/04 11:28:34;;;;;;;3.92;1.00;;;10.90;99.90;;;;;;5186158;28;20532;-85
2022/01/04 11:31:27;;;;;;;1.50;0.88;;;11.00;99.90;;;;;;5166211;28;20048;-83
2022/01/04 11:34:12;;;;;;;1.73;1.05;;;11.20;99.90;;;;;;5207511;28;20041;-87
2022/01/04 11:36:50;;;;;;;2.80;1.20;;;9.60;99.90;;;;;;5153245;28;20469;-84
2022/01/04 11:39:39;;;;;;;3.85;1.08;;;11.50;99.90;;;;;;5168721;28;20060;-84
2022/01/04 11:42:31;;;;;;;2.22;1.10;;;11.60;99.90;;;;;;5178542;28;20044;-84
2022/01/04 11:45:10;;;;;;;2.45;1.10;;;11.70;99.90;;;;;;5207609;28;20049;-86
2022/01/04 11:47:47;;;;;;;3.13;1.20;;;11.80;99.90;;;;;;5189389;28;20391;-83
2022/01/04 11:50:21;;;;;;;2.05;1.10;;;12.30;99.90;;;;;;5160369;28;25279;-83
2022/01/04 11:52:59;;;;;;;1.52;0.90;;;12.00;99.90;;;;;;5168516;28;20045;-83
2022/01/04 11:55:36;;;;;;;0.80;0.80;;;12.10;99.90;;;;;;5198114;28;20508;-83
2022/01/04 11:58:14;;;;;;;1.23;1.10;;;12.30;99.90;;;;;;5177352;28;20421;-84
2022/01/04 12:01:00;;;;;;;1.65;1.10;;;12.50;99.90;;;;;;5177753;28;20067;-84
2022/01/04 12:03:38;;;;;;;1.20;0.90;;;12.60;99.90;;;;;;5195612;28;20692;-86
2022/01/04 12:06:13;;;;;;;1.08;1.00;;;12.80;99.90;;;;;;5196269;28;20064;-85
2022/01/04 12:08:49;;;;;;;2.40;1.13;;;12.80;99.90;;;;;;5177813;28;20049;-84
2022/01/04 12:11:25;;;;;;;1.15;0.80;;;12.90;99.90;;;;;;5187627;28;20273;-85
2022/01/04 12:14:00;;;;;;;1.17;0.93;;;13.00;99.90;;;;;;5173726;28;20052;-84
2022/01/04 12:16:43;;;;;;;1.00;0.88;;;13.10;99.70;;;;;;5211059;28;20390;-85
2022/01/04 12:19:16;;;;;;;1.38;1.10;;;;;;;;;;5191329;28;20084;-84
2022/01/04 12:22:02;;;;;;;1.45;1.00;;;13.20;96.60;;;;;;5165996;28;20056;-87
2022/01/04 12:24:45;;;;;;;1.45;1.27;;;13.30;96.00;;;;;;5158702;28;20053;-87
2022/01/04 12:27:18;;;;;;;1.47;1.20;;;13.30;95.70;;;;;;5162279;28;20060;-83
2022/01/04 12:30:24;;;;;;;1.10;0.97;;;13.30;95.20;;;;;;5167741;28;20051;-84
2022/01/04 12:33:34;;;;;;;1.05;1.00;;;13.30;93.20;;;;;;5189254;28;20382;-84
2022/01/04 12:36:08;;;;;;;1.40;1.25;;;13.40;92.90;;;;;;5177210;28;20057;-85
2022/01/04 12:38:47;;;;;;;;;;;13.40;93.20;;;;;;5171417;28;20511;-85
2022/01/04 12:41:20;;;;;;;3.15;1.30;;;13.50;92.80;;;;;;5154462;28;19934;-84
2022/01/04 12:43:53;;;;;;;1.20;1.10;;;;;;;;;;5186955;28;20660;-86
2022/01/04 12:46:29;;;;;;;0.98;0.75;;;13.50;92.50;;;;;;5176241;28;20508;-84
2022/01/04 12:49:29;;;;;;;4.10;1.15;;;13.60;92.30;;;;;;5156443;28;20041;-83
2022/01/04 12:52:08;;;;;;;1.10;1.00;;;14.30;91.70;;;;;;5154518;28;20524;-85
2022/01/04 12:54:41;;;;;;;4.57;1.20;;;13.70;91.30;;;;;;5145764;28;20053;-84
2022/01/04 12:57:22;;;;;;;1.75;1.27;;;13.70;91.40;;;;;;5188347;28;20215;-84
2022/01/04 12:59:57;;;;;;;1.23;1.10;;;13.70;90.90;;;;;;5163480;28;20705;-84
2022/01/04 13:02:31;;;;;;;2.03;1.10;;;13.80;90.90;;;;;;5188143;28;20064;-84
2022/01/04 13:05:07;;;;;;;1.50;1.30;;;13.80;90.70;;;;;;5145699;28;20056;-86
2022/01/04 13:07:41;;;;;;;1.92;1.13;;;13.80;90.80;;;;;;5184683;28;20048;-84
2022/01/04 13:10:15;;;;;;;;;;;13.80;90.40;;;;;;5172341;28;20056;-84
2022/01/04 13:12:50;;;;;;;2.30;1.75;;;13.20;89.10;;;;;;5153408;28;19955;-84
2022/01/04 13:15:24;;;;;;;4.45;2.50;;;14.40;90.00;;;;;;5136803;28;20059;-85
2022/01/04 13:17:58;;;;;;;2.55;1.90;;;;;;;;;;5152926;28;20486;-84
2022/01/04 13:20:33;;;;;;;;;;;14.00;88.30;;;;;;5184889;28;20041;-84
2022/01/04 13:23:07;;;;;;;1.90;1.40;;;14.20;86.60;;;;;;5148920;28;20302;-84
2022/01/04 13:25:40;;;;;;;1.38;1.15;;;14.30;87.30;;;;;;5172593;28;20056;-85
2022/01/04 13:28:13;;;;;;;1.50;1.27;;;14.40;86.60;;;;;;5182326;28;20049;-85
2022/01/04 13:30:47;;;;;;;1.38;1.13;;;14.40;85.30;;;;;;5145474;28;20060;-87
2022/01/04 13:33:22;;;;;;;;;;;14.50;83.20;;;;;;5180744;28;20045;-85
2022/01/04 13:35:58;;;;;;;1.30;1.00;;;14.60;82.00;;;;;;5187519;28;19936;-85
2022/01/04 13:38:34;;;;;;;2.28;1.35;;;14.60;82.70;;;;;;5164836;28;20049;-85
2022/01/04 13:41:08;;;;;;;3.10;1.85;;;14.60;83.20;;;;;;5185808;28;20664;-85